sensor_id;sensor_type;location;lat;lon;timestamp;P1;P2;P0
27143;PMS1003;14672;50.250;8.312;2023-11-21T00:01:18;5.50;5.50;1.00
27143;PMS1003;14672;50.250;8.312;2023-11-21T00:03:44;6.33;6.33;1.00
27143;PMS1003;14672;50.250;8.312;2023-11-21T00:06:10;8.00;6.00;1.00
27143;PMS1003;14672;50.250;8.312;2023-11-21T00:08:36;12.00;10.67;1.00
27143;PMS1003;14672;50.250;8.312;2023-11-21T00:11:02;6.25;6.00;1.00
27143;PMS1003;14672;50.250;8.312;2023-11-21T00:13:31;6.00;6.00;1.00
27143;PMS1003;14672;50.250;8.312;2023-11-21T00:15:58;8.00;8.00;1.00
27143;PMS1003;14672;50.250;8.312;2023-11-21T00:18:26;8.00;8.00;1.00
27143;PMS1003;14672;50.250;8.312;2023-11-21T00:20:52;7.67;7.67;1.00
27143;PMS1003;14672;50.250;8.312;2023-11-21T00:23:18;8.00;8.00;1.00
27143;PMS1003;14672;50.250;8.312;2023-11-21T00:25:43;8.00;6.00;0.67
27143;PMS1003;14672;50.250;8.312;2023-11-21T00:28:09;6.33;6.33;1.00
27143;PMS1003;14672;50.250;8.312;2023-11-21T00:30:35;8.00;7.67;1.00
27143;PMS1003;14672;50.250;8.312;2023-11-21T00:33:00;8.00;6.00;1.00
27143;PMS1003;14672;50.250;8.312;2023-11-21T00:35:26;8.00;8.00;1.00
27143;PMS1003;14672;50.250;8.312;2023-11-21T00:37:52;10.00;8.00;1.00
27143;PMS1003;14672;50.250;8.312;2023-11-21T00:40:17;5.67;5.67;1.00
27143;PMS1003;14672;50.250;8.312;2023-11-21T00:42:47;5.00;5.00;0.75
27143;PMS1003;14672;50.250;8.312;2023-11-21T00:45:12;8.00;8.00;3.00
27143;PMS1003;14672;50.250;8.312;2023-11-21T00:47:38;7.00;7.00;1.00
27143;PMS1003;14672;50.250;8.312;2023-11-21T00:50:05;6.00;6.00;1.00
27143;PMS1003;14672;50.250;8.312;2023-11-21T00:52:32;7.75;7.75;1.00
27143;PMS1003;14672;50.250;8.312;2023-11-21T00:54:58;10.25;9.00;3.00
27143;PMS1003;14672;50.250;8.312;2023-11-21T00:57:28;9.00;8.00;1.00
27143;PMS1003;14672;50.250;8.312;2023-11-21T00:59:54;8.00;7.00;1.00
27143;PMS1003;14672;50.250;8.312;2023-11-21T01:02:23;10.00;10.00;1.00
27143;PMS1003;14672;50.250;8.312;2023-11-21T01:04:48;8.00;6.00;3.00
27143;PMS1003;14672;50.250;8.312;2023-11-21T01:07:14;8.67;8.67;1.00
27143;PMS1003;14672;50.250;8.312;2023-11-21T01:09:40;6.33;6.33;1.00
27143;PMS1003;14672;50.250;8.312;2023-11-21T01:12:06;7.00;6.67;1.00
27143;PMS1003;14672;50.250;8.312;2023-11-21T01:14:32;10.00;8.50;3.00
27143;PMS1003;14672;50.250;8.312;2023-11-21T01:16:57;6.00;6.00;1.00
27143;PMS1003;14672;50.250;8.312;2023-11-21T01:19:23;7.00;7.00;3.00
27143;PMS1003;14672;50.250;8.312;2023-11-21T01:21:49;9.33;9.33;3.00
27143;PMS1003;14672;50.250;8.312;2023-11-21T01:24:15;7.67;7.67;1.00
27143;PMS1003;14672;50.250;8.312;2023-11-21T01:26:40;8.67;8.67;3.00
27143;PMS1003;14672;50.250;8.312;2023-11-21T01:29:06;10.00;8.00;3.00
27143;PMS1003;14672;50.250;8.312;2023-11-21T01:31:32;8.67;8.67;3.00
27143;PMS1003;14672;50.250;8.312;2023-11-21T01:33:57;10.00;8.00;3.00
27143;PMS1003;14672;50.250;8.312;2023-11-21T01:36:29;8.67;7.00;1.67
27143;PMS1003;14672;50.250;8.312;2023-11-21T01:38:58;10.00;8.00;3.00
27143;PMS1003;14672;50.250;8.312;2023-11-21T01:41:25;7.75;7.25;1.50
27143;PMS1003;14672;50.250;8.312;2023-11-21T01:43:53;17.50;17.00;7.00
27143;PMS1003;14672;50.250;8.312;2023-11-21T01:46:20;20.75;16.75;7.00
27143;PMS1003;14672;50.250;8.312;2023-11-21T01:48:50;17.50;14.25;5.00
27143;PMS1003;14672;50.250;8.312;2023-11-21T01:51:16;12.75;12.50;5.00
27143;PMS1003;14672;50.250;8.312;2023-11-21T01:53:43;13.00;12.00;5.00
27143;PMS1003;14672;50.250;8.312;2023-11-21T01:56:11;11.50;11.00;4.50
27143;PMS1003;14672;50.250;8.312;2023-11-21T01:58:38;10.00;10.00;4.00
27143;PMS1003;14672;50.250;8.312;2023-11-21T02:01:05;6.75;6.75;1.00
27143;PMS1003;14672;50.250;8.312;2023-11-21T02:03:31;10.00;10.00;3.00
27143;PMS1003;14672;50.250;8.312;2023-11-21T02:05:56;8.67;8.67;3.00
27143;PMS1003;14672;50.250;8.312;2023-11-21T02:08:22;13.67;10.00;3.00
27143;PMS1003;14672;50.250;8.312;2023-11-21T02:10:48;7.33;7.33;1.00
27143;PMS1003;14672;50.250;8.312;2023-11-21T02:13:13;8.00;8.00;1.00
27143;PMS1003;14672;50.250;8.312;2023-11-21T02:15:40;8.00;8.00;2.00
27143;PMS1003;14672;50.250;8.312;2023-11-21T02:18:06;6.75;6.75;1.00
27143;PMS1003;14672;50.250;8.312;2023-11-21T02:20:32;9.50;9.50;3.00
27143;PMS1003;14672;50.250;8.312;2023-11-21T02:23:00;6.75;6.75;2.00
27143;PMS1003;14672;50.250;8.312;2023-11-21T02:25:27;8.00;8.00;2.50
27143;PMS1003;14672;50.250;8.312;2023-11-21T02:27:58;7.75;7.75;1.50
27143;PMS1003;14672;50.250;8.312;2023-11-21T02:30:27;6.50;6.50;1.00
27143;PMS1003;14672;50.250;8.312;2023-11-21T02:32:54;11.00;7.50;1.00
27143;PMS1003;14672;50.250;8.312;2023-11-21T02:35:22;7.00;6.75;1.00
27143;PMS1003;14672;50.250;8.312;2023-11-21T02:37:47;6.00;6.00;1.00
27143;PMS1003;14672;50.250;8.312;2023-11-21T02:40:14;7.00;7.00;1.00
27143;PMS1003;14672;50.250;8.312;2023-11-21T02:42:46;6.75;6.75;1.00
27143;PMS1003;14672;50.250;8.312;2023-11-21T02:45:13;6.75;6.75;1.00
27143;PMS1003;14672;50.250;8.312;2023-11-21T02:47:42;8.50;7.50;1.00
27143;PMS1003;14672;50.250;8.312;2023-11-21T02:50:08;14.25;10.00;3.00
27143;PMS1003;14672;50.250;8.312;2023-11-21T02:52:35;6.75;6.75;1.00
27143;PMS1003;14672;50.250;8.312;2023-11-21T02:55:01;12.00;10.00;3.50
27143;PMS1003;14672;50.250;8.312;2023-11-21T02:57:28;10.00;10.00;3.00
27143;PMS1003;14672;50.250;8.312;2023-11-21T02:59:54;13.75;12.50;5.00
27143;PMS1003;14672;50.250;8.312;2023-11-21T03:02:20;11.00;11.00;5.00
27143;PMS1003;14672;50.250;8.312;2023-11-21T03:04:50;14.75;12.75;4.00
27143;PMS1003;14672;50.250;8.312;2023-11-21T03:07:19;14.25;13.50;5.00
27143;PMS1003;14672;50.250;8.312;2023-11-21T03:09:47;12.00;11.33;3.67
27143;PMS1003;14672;50.250;8.312;2023-11-21T03:12:13;13.75;12.00;3.50
27143;PMS1003;14672;50.250;8.312;2023-11-21T03:14:39;12.00;12.00;3.00
27143;PMS1003;14672;50.250;8.312;2023-11-21T03:17:05;11.00;11.00;3.00
27143;PMS1003;14672;50.250;8.312;2023-11-21T03:19:31;11.50;11.50;5.00
27143;PMS1003;14672;50.250;8.312;2023-11-21T03:21:57;8.00;8.00;3.00
27143;PMS1003;14672;50.250;8.312;2023-11-21T03:24:24;13.00;13.00;4.50
27143;PMS1003;14672;50.250;8.312;2023-11-21T03:26:50;10.00;9.00;3.00
27143;PMS1003;14672;50.250;8.312;2023-11-21T03:29:16;13.00;12.50;3.50
27143;PMS1003;14672;50.250;8.312;2023-11-21T03:31:41;11.67;10.33;3.67
27143;PMS1003;14672;50.250;8.312;2023-11-21T03:34:10;12.00;12.00;3.00
27143;PMS1003;14672;50.250;8.312;2023-11-21T03:36:41;12.25;12.25;5.00
27143;PMS1003;14672;50.250;8.312;2023-11-21T03:39:07;13.33;12.67;4.33
27143;PMS1003;14672;50.250;8.312;2023-11-21T03:41:32;14.00;14.00;5.67
27143;PMS1003;14672;50.250;8.312;2023-11-21T03:43:59;12.75;11.75;3.50
27143;PMS1003;14672;50.250;8.312;2023-11-21T03:46:25;12.25;11.00;5.00
27143;PMS1003;14672;50.250;8.312;2023-11-21T03:48:51;17.00;15.33;5.00
27143;PMS1003;14672;50.250;8.312;2023-11-21T03:51:16;14.00;14.00;7.00
27143;PMS1003;14672;50.250;8.312;2023-11-21T03:53:42;15.00;14.00;7.00
27143;PMS1003;14672;50.250;8.312;2023-11-21T03:56:08;12.33;12.00;5.00
27143;PMS1003;14672;50.250;8.312;2023-11-21T03:58:34;21.00;19.25;7.00
27143;PMS1003;14672;50.250;8.312;2023-11-21T04:01:00;17.00;15.67;7.67
27143;PMS1003;14672;50.250;8.312;2023-11-21T04:03:26;15.75;13.75;5.00
27143;PMS1003;14672;50.250;8.312;2023-11-21T04:05:52;14.67;13.67;7.67
27143;PMS1003;14672;50.250;8.312;2023-11-21T04:08:18;18.00;16.00;5.00
27143;PMS1003;14672;50.250;8.312;2023-11-21T04:10:43;15.00;15.00;7.00
27143;PMS1003;14672;50.250;8.312;2023-11-21T04:13:09;17.67;16.00;6.67
27143;PMS1003;14672;50.250;8.312;2023-11-21T04:15:35;13.75;13.00;6.75
27143;PMS1003;14672;50.250;8.312;2023-11-21T04:18:01;19.00;17.00;8.00
27143;PMS1003;14672;50.250;8.312;2023-11-21T04:20:27;17.00;15.75;5.50
27143;PMS1003;14672;50.250;8.312;2023-11-21T04:22:53;15.33;14.67;7.00
27143;PMS1003;14672;50.250;8.312;2023-11-21T04:25:19;16.00;14.00;7.00
27143;PMS1003;14672;50.250;8.312;2023-11-21T04:27:44;12.67;12.67;5.00
27143;PMS1003;14672;50.250;8.312;2023-11-21T04:30:11;14.25;13.75;6.75
27143;PMS1003;14672;50.250;8.312;2023-11-21T04:32:38;18.25;15.50;5.50
27143;PMS1003;14672;50.250;8.312;2023-11-21T04:35:04;17.25;16.50;6.00
27143;PMS1003;14672;50.250;8.312;2023-11-21T04:37:30;11.75;11.75;5.00
27143;PMS1003;14672;50.250;8.312;2023-11-21T04:39:56;14.67;13.33;6.00
27143;PMS1003;14672;50.250;8.312;2023-11-21T04:42:22;23.67;19.67;8.00
27143;PMS1003;14672;50.250;8.312;2023-11-21T04:44:48;16.00;16.00;7.00
27143;PMS1003;14672;50.250;8.312;2023-11-21T04:47:15;15.00;14.50;6.75
27143;PMS1003;14672;50.250;8.312;2023-11-21T04:49:44;13.75;13.75;6.50
27143;PMS1003;14672;50.250;8.312;2023-11-21T04:52:12;17.00;15.00;5.50
27143;PMS1003;14672;50.250;8.312;2023-11-21T04:54:38;15.25;15.00;6.00
27143;PMS1003;14672;50.250;8.312;2023-11-21T04:57:05;15.00;12.50;5.00
27143;PMS1003;14672;50.250;8.312;2023-11-21T04:59:32;15.00;13.50;4.50
27143;PMS1003;14672;50.250;8.312;2023-11-21T05:01:59;18.50;17.00;7.50
27143;PMS1003;14672;50.250;8.312;2023-11-21T05:04:30;17.00;16.00;6.75
27143;PMS1003;14672;50.250;8.312;2023-11-21T05:06:55;15.00;14.33;4.33
27143;PMS1003;14672;50.250;8.312;2023-11-21T05:09:21;17.33;14.00;5.00
27143;PMS1003;14672;50.250;8.312;2023-11-21T05:11:47;12.67;12.33;5.00
27143;PMS1003;14672;50.250;8.312;2023-11-21T05:14:13;13.67;12.00;5.00
27143;PMS1003;14672;50.250;8.312;2023-11-21T05:16:39;14.33;14.33;7.00
27143;PMS1003;14672;50.250;8.312;2023-11-21T05:19:04;16.33;14.67;7.00
27143;PMS1003;14672;50.250;8.312;2023-11-21T05:21:31;17.00;16.00;7.25
27143;PMS1003;14672;50.250;8.312;2023-11-21T05:23:57;18.00;17.25;6.75
27143;PMS1003;14672;50.250;8.312;2023-11-21T05:26:23;15.67;14.33;6.00
27143;PMS1003;14672;50.250;8.312;2023-11-21T05:28:49;15.25;14.50;5.00
27143;PMS1003;14672;50.250;8.312;2023-11-21T05:31:15;15.00;14.00;7.00
27143;PMS1003;14672;50.250;8.312;2023-11-21T05:33:41;17.00;17.00;7.67
27143;PMS1003;14672;50.250;8.312;2023-11-21T05:36:07;17.00;16.00;8.00
27143;PMS1003;14672;50.250;8.312;2023-11-21T05:38:33;16.00;14.50;6.00
27143;PMS1003;14672;50.250;8.312;2023-11-21T05:41:00;16.00;15.00;6.00
27143;PMS1003;14672;50.250;8.312;2023-11-21T05:43:27;17.75;17.50;8.00
27143;PMS1003;14672;50.250;8.312;2023-11-21T05:45:54;20.00;20.00;10.00
27143;PMS1003;14672;50.250;8.312;2023-11-21T05:48:20;22.33;17.00;7.00
27143;PMS1003;14672;50.250;8.312;2023-11-21T05:50:46;21.67;20.67;8.00
27143;PMS1003;14672;50.250;8.312;2023-11-21T05:53:14;17.50;17.50;8.00
27143;PMS1003;14672;50.250;8.312;2023-11-21T05:55:40;18.50;17.00;7.00
27143;PMS1003;14672;50.250;8.312;2023-11-21T05:58:07;20.50;17.75;8.00
27143;PMS1003;14672;50.250;8.312;2023-11-21T06:00:33;15.50;15.50;7.50
27143;PMS1003;14672;50.250;8.312;2023-11-21T06:02:59;19.25;17.00;6.75
27143;PMS1003;14672;50.250;8.312;2023-11-21T06:05:26;20.75;18.75;8.00
27143;PMS1003;14672;50.250;8.312;2023-11-21T06:07:52;19.75;19.25;7.00
27143;PMS1003;14672;50.250;8.312;2023-11-21T06:10:21;22.25;21.00;8.50
27143;PMS1003;14672;50.250;8.312;2023-11-21T06:12:48;21.75;21.00;10.50
27143;PMS1003;14672;50.250;8.312;2023-11-21T06:15:14;20.00;18.67;8.00
27143;PMS1003;14672;50.250;8.312;2023-11-21T06:17:42;22.25;18.00;7.25
27143;PMS1003;14672;50.250;8.312;2023-11-21T06:20:09;24.75;22.00;11.75
27143;PMS1003;14672;50.250;8.312;2023-11-21T06:22:39;24.00;22.50;10.00
27143;PMS1003;14672;50.250;8.312;2023-11-21T06:25:10;20.25;20.25;8.00
27143;PMS1003;14672;50.250;8.312;2023-11-21T06:27:41;26.50;24.75;10.50
27143;PMS1003;14672;50.250;8.312;2023-11-21T06:30:09;25.25;22.25;10.00
27143;PMS1003;14672;50.250;8.312;2023-11-21T06:32:37;19.75;17.25;8.50
27143;PMS1003;14672;50.250;8.312;2023-11-21T06:35:04;18.25;18.25;8.50
27143;PMS1003;14672;50.250;8.312;2023-11-21T06:37:32;21.25;20.25;10.00
27143;PMS1003;14672;50.250;8.312;2023-11-21T06:39:58;19.25;15.50;8.00
27143;PMS1003;14672;50.250;8.312;2023-11-21T06:42:25;24.00;22.25;10.00
27143;PMS1003;14672;50.250;8.312;2023-11-21T06:44:52;18.50;18.00;9.75
27143;PMS1003;14672;50.250;8.312;2023-11-21T06:47:19;20.75;20.75;10.50
27143;PMS1003;14672;50.250;8.312;2023-11-21T06:49:45;23.50;20.25;8.00
27143;PMS1003;14672;50.250;8.312;2023-11-21T06:52:14;23.00;22.00;10.00
27143;PMS1003;14672;50.250;8.312;2023-11-21T06:54:40;24.67;22.00;10.00
27143;PMS1003;14672;50.250;8.312;2023-11-21T06:57:06;28.33;22.33;10.00
27143;PMS1003;14672;50.250;8.312;2023-11-21T06:59:32;23.00;22.25;8.00
27143;PMS1003;14672;50.250;8.312;2023-11-21T07:01:58;22.67;21.33;10.00
27143;PMS1003;14672;50.250;8.312;2023-11-21T07:04:24;21.67;21.33;10.00
27143;PMS1003;14672;50.250;8.312;2023-11-21T07:06:53;25.25;24.50;10.50
27143;PMS1003;14672;50.250;8.312;2023-11-21T07:09:19;23.00;20.75;8.00
27143;PMS1003;14672;50.250;8.312;2023-11-21T07:11:47;21.75;20.50;9.50
27143;PMS1003;14672;50.250;8.312;2023-11-21T07:14:14;28.50;27.50;12.00
27143;PMS1003;14672;50.250;8.312;2023-11-21T07:16:42;24.75;22.50;12.25
27143;PMS1003;14672;50.250;8.312;2023-11-21T07:19:08;26.25;24.00;12.00
27143;PMS1003;14672;50.250;8.312;2023-11-21T07:21:34;19.00;18.33;8.00
27143;PMS1003;14672;50.250;8.312;2023-11-21T07:24:01;26.00;22.25;11.00
27143;PMS1003;14672;50.250;8.312;2023-11-21T07:26:28;23.50;22.25;10.50
27143;PMS1003;14672;50.250;8.312;2023-11-21T07:28:54;23.50;22.75;9.00
27143;PMS1003;14672;50.250;8.312;2023-11-21T07:31:23;23.50;22.00;12.00
27143;PMS1003;14672;50.250;8.312;2023-11-21T07:33:49;32.00;27.00;10.67
27143;PMS1003;14672;50.250;8.312;2023-11-21T07:36:16;24.25;21.50;10.50
27143;PMS1003;14672;50.250;8.312;2023-11-21T07:38:48;25.75;22.25;10.00
27143;PMS1003;14672;50.250;8.312;2023-11-21T07:41:15;21.50;19.25;7.50
27143;PMS1003;14672;50.250;8.312;2023-11-21T07:43:42;15.25;14.25;6.75
27143;PMS1003;14672;50.250;8.312;2023-11-21T07:46:09;19.50;18.00;6.75
27143;PMS1003;14672;50.250;8.312;2023-11-21T07:48:37;20.75;18.50;6.75
27143;PMS1003;14672;50.250;8.312;2023-11-21T07:51:07;18.00;18.00;6.75
27143;PMS1003;14672;50.250;8.312;2023-11-21T07:53:35;20.75;20.75;9.00
27143;PMS1003;14672;50.250;8.312;2023-11-21T07:56:05;22.50;18.75;8.00
27143;PMS1003;14672;50.250;8.312;2023-11-21T07:58:35;16.50;16.50;6.75
27143;PMS1003;14672;50.250;8.312;2023-11-21T08:01:02;23.75;20.50;9.50
27143;PMS1003;14672;50.250;8.312;2023-11-21T08:03:29;17.50;17.00;10.00
27143;PMS1003;14672;50.250;8.312;2023-11-21T08:05:59;13.00;13.00;5.00
27143;PMS1003;14672;50.250;8.312;2023-11-21T08:08:25;14.25;14.25;6.75
27143;PMS1003;14672;50.250;8.312;2023-11-21T08:10:54;16.50;15.25;6.75
27143;PMS1003;14672;50.250;8.312;2023-11-21T08:13:26;28.00;21.50;10.00
27143;PMS1003;14672;50.250;8.312;2023-11-21T08:15:55;26.25;24.25;14.25
27143;PMS1003;14672;50.250;8.312;2023-11-21T08:18:27;30.50;25.00;9.50
27143;PMS1003;14672;50.250;8.312;2023-11-21T08:20:54;28.00;23.67;10.00
27143;PMS1003;14672;50.250;8.312;2023-11-21T08:23:20;21.25;19.50;10.00
27143;PMS1003;14672;50.250;8.312;2023-11-21T08:25:50;26.50;19.75;8.50
27143;PMS1003;14672;50.250;8.312;2023-11-21T08:28:17;19.25;18.75;10.00
27143;PMS1003;14672;50.250;8.312;2023-11-21T08:30:43;15.50;13.75;6.00
27143;PMS1003;14672;50.250;8.312;2023-11-21T08:33:09;15.00;15.00;8.00
27143;PMS1003;14672;50.250;8.312;2023-11-21T08:35:37;14.75;14.75;7.75
27143;PMS1003;14672;50.250;8.312;2023-11-21T08:38:06;18.75;17.00;6.00
27143;PMS1003;14672;50.250;8.312;2023-11-21T08:40:32;16.33;16.33;5.00
27143;PMS1003;14672;50.250;8.312;2023-11-21T08:42:58;22.25;20.25;8.00
27143;PMS1003;14672;50.250;8.312;2023-11-21T08:45:24;18.33;18.33;8.00
27143;PMS1003;14672;50.250;8.312;2023-11-21T08:47:53;21.00;19.75;8.50
27143;PMS1003;14672;50.250;8.312;2023-11-21T08:50:19;20.00;18.67;8.00
27143;PMS1003;14672;50.250;8.312;2023-11-21T08:52:46;21.00;15.33;5.33
27143;PMS1003;14672;50.250;8.312;2023-11-21T08:55:12;20.50;18.50;9.00
27143;PMS1003;14672;50.250;8.312;2023-11-21T08:57:39;15.00;14.00;6.00
27143;PMS1003;14672;50.250;8.312;2023-11-21T09:00:09;16.50;15.25;7.00
27143;PMS1003;14672;50.250;8.312;2023-11-21T09:02:37;31.00;25.00;9.50
27143;PMS1003;14672;50.250;8.312;2023-11-21T09:05:10;40.00;33.50;14.50
27143;PMS1003;14672;50.250;8.312;2023-11-21T09:07:38;52.75;43.25;20.00
27143;PMS1003;14672;50.250;8.312;2023-11-21T09:10:06;100.80;77.20;44.60
27143;PMS1003;14672;50.250;8.312;2023-11-21T09:12:32;91.20;70.40;37.00
27143;PMS1003;14672;50.250;8.312;2023-11-21T09:15:01;43.75;39.00;20.00
27143;PMS1003;14672;50.250;8.312;2023-11-21T09:17:29;66.50;58.00;34.00
27143;PMS1003;14672;50.250;8.312;2023-11-21T09:19:56;25.00;24.25;10.00
27143;PMS1003;14672;50.250;8.312;2023-11-21T09:22:22;26.00;22.75;10.00
27143;PMS1003;14672;50.250;8.312;2023-11-21T09:24:50;18.75;18.25;8.50
27143;PMS1003;14672;50.250;8.312;2023-11-21T09:27:17;19.25;17.75;8.00
27143;PMS1003;14672;50.250;8.312;2023-11-21T09:29:43;16.75;15.75;6.00
27143;PMS1003;14672;50.250;8.312;2023-11-21T09:32:09;18.33;17.00;6.33
27143;PMS1003;14672;50.250;8.312;2023-11-21T09:34:39;20.50;19.25;8.00
27143;PMS1003;14672;50.250;8.312;2023-11-21T09:37:05;22.75;21.00;8.50
27143;PMS1003;14672;50.250;8.312;2023-11-21T09:39:32;22.00;19.00;6.50
27143;PMS1003;14672;50.250;8.312;2023-11-21T09:42:47;21.75;19.75;10.00
27143;PMS1003;14672;50.250;8.312;2023-11-21T09:47:47;20.00;17.25;6.50
27143;PMS1003;14672;50.250;8.312;2023-11-21T09:50:14;21.50;18.25;7.25
27143;PMS1003;14672;50.250;8.312;2023-11-21T09:55:49;19.00;18.75;6.75
27143;PMS1003;14672;50.250;8.312;2023-11-21T09:58:18;16.75;16.50;7.25
27143;PMS1003;14672;50.250;8.312;2023-11-21T10:00:48;17.00;13.50;6.00
27143;PMS1003;14672;50.250;8.312;2023-11-21T10:03:18;18.75;16.75;6.00
27143;PMS1003;14672;50.250;8.312;2023-11-21T10:05:44;15.00;15.00;6.00
27143;PMS1003;14672;50.250;8.312;2023-11-21T10:08:13;20.75;19.50;9.50
27143;PMS1003;14672;50.250;8.312;2023-11-21T10:10:43;17.25;15.50;7.50
27143;PMS1003;14672;50.250;8.312;2023-11-21T10:13:11;14.75;14.75;6.00
27143;PMS1003;14672;50.250;8.312;2023-11-21T10:15:42;16.50;15.25;8.00
27143;PMS1003;14672;50.250;8.312;2023-11-21T10:18:13;18.25;18.00;8.00
27143;PMS1003;14672;50.250;8.312;2023-11-21T10:20:40;16.75;15.50;5.75
27143;PMS1003;14672;50.250;8.312;2023-11-21T10:23:10;20.50;19.75;6.00
27143;PMS1003;14672;50.250;8.312;2023-11-21T10:25:37;17.75;15.00;5.00
27143;PMS1003;14672;50.250;8.312;2023-11-21T10:28:03;15.33;15.00;6.00
27143;PMS1003;14672;50.250;8.312;2023-11-21T10:30:36;16.25;15.50;8.00
27143;PMS1003;14672;50.250;8.312;2023-11-21T10:33:04;18.00;16.50;5.50
27143;PMS1003;14672;50.250;8.312;2023-11-21T10:35:46;13.00;13.00;5.75
27143;PMS1003;14672;50.250;8.312;2023-11-21T10:38:22;14.00;13.25;7.00
27143;PMS1003;14672;50.250;8.312;2023-11-21T10:40:49;14.00;11.00;4.75
27143;PMS1003;14672;50.250;8.312;2023-11-21T10:43:16;15.75;15.00;5.00
27143;PMS1003;14672;50.250;8.312;2023-11-21T10:45:44;14.00;13.00;7.00
27143;PMS1003;14672;50.250;8.312;2023-11-21T10:48:10;16.50;14.25;6.00
27143;PMS1003;14672;50.250;8.312;2023-11-21T10:50:41;15.25;15.00;5.00
27143;PMS1003;14672;50.250;8.312;2023-11-21T10:53:07;17.75;15.00;4.75
27143;PMS1003;14672;50.250;8.312;2023-11-21T10:55:33;15.67;15.00;6.00
27143;PMS1003;14672;50.250;8.312;2023-11-21T10:58:00;14.75;14.75;6.00
27143;PMS1003;14672;50.250;8.312;2023-11-21T11:00:29;12.75;12.00;4.75
27143;PMS1003;14672;50.250;8.312;2023-11-21T11:02:57;17.75;15.25;6.00
27143;PMS1003;14672;50.250;8.312;2023-11-21T11:05:26;15.75;15.25;7.00
27143;PMS1003;14672;50.250;8.312;2023-11-21T11:08:15;14.50;13.25;4.25
27143;PMS1003;14672;50.250;8.312;2023-11-21T11:10:44;19.50;14.50;5.50
27143;PMS1003;14672;50.250;8.312;2023-11-21T11:13:15;14.75;13.50;5.00
27143;PMS1003;14672;50.250;8.312;2023-11-21T11:15:42;15.50;14.00;6.00
27143;PMS1003;14672;50.250;8.312;2023-11-21T11:18:12;17.00;16.00;8.00
27143;PMS1003;14672;50.250;8.312;2023-11-21T11:20:40;23.00;16.75;8.00
27143;PMS1003;14672;50.250;8.312;2023-11-21T11:23:58;14.50;14.50;7.50
27143;PMS1003;14672;50.250;8.312;2023-11-21T11:38:07;16.50;16.50;8.00
27143;PMS1003;14672;50.250;8.312;2023-11-21T11:40:41;22.75;21.50;9.00
27143;PMS1003;14672;50.250;8.312;2023-11-21T11:43:10;21.50;19.50;9.00
27143;PMS1003;14672;50.250;8.312;2023-11-21T11:45:36;22.75;21.00;9.00
27143;PMS1003;14672;50.250;8.312;2023-11-21T11:48:16;20.75;17.75;8.25
27143;PMS1003;14672;50.250;8.312;2023-11-21T11:53:43;16.25;15.75;8.00
27143;PMS1003;14672;50.250;8.312;2023-11-21T11:56:24;21.00;18.75;8.25
27143;PMS1003;14672;50.250;8.312;2023-11-21T11:58:57;16.75;16.75;7.00
27143;PMS1003;14672;50.250;8.312;2023-11-21T12:01:27;19.25;17.75;6.00
27143;PMS1003;14672;50.250;8.312;2023-11-21T12:06:59;15.75;15.75;8.00
27143;PMS1003;14672;50.250;8.312;2023-11-21T12:09:30;17.00;13.75;4.50
27143;PMS1003;14672;50.250;8.312;2023-11-21T12:11:56;12.75;12.75;4.25
27143;PMS1003;14672;50.250;8.312;2023-11-21T12:14:23;17.75;15.25;4.75
27143;PMS1003;14672;50.250;8.312;2023-11-21T12:16:50;14.00;13.75;5.25
27143;PMS1003;14672;50.250;8.312;2023-11-21T12:19:17;13.00;13.00;4.00
27143;PMS1003;14672;50.250;8.312;2023-11-21T12:21:43;18.25;17.50;8.00
27143;PMS1003;14672;50.250;8.312;2023-11-21T12:24:09;14.00;14.00;8.00
27143;PMS1003;14672;50.250;8.312;2023-11-21T12:26:38;15.50;13.75;6.00
27143;PMS1003;14672;50.250;8.312;2023-11-21T12:29:07;20.25;18.75;6.50
27143;PMS1003;14672;50.250;8.312;2023-11-21T12:31:34;19.00;18.67;8.00
27143;PMS1003;14672;50.250;8.312;2023-11-21T12:34:00;15.00;15.00;6.50
27143;PMS1003;14672;50.250;8.312;2023-11-21T12:36:26;18.00;18.00;8.00
27143;PMS1003;14672;50.250;8.312;2023-11-21T12:38:54;19.50;18.00;8.00
27143;PMS1003;14672;50.250;8.312;2023-11-21T12:41:20;22.33;18.67;8.33
27143;PMS1003;14672;50.250;8.312;2023-11-21T12:43:46;21.50;17.75;7.50
27143;PMS1003;14672;50.250;8.312;2023-11-21T12:46:13;16.50;15.50;8.00
27143;PMS1003;14672;50.250;8.312;2023-11-21T12:48:43;17.75;16.50;6.50
27143;PMS1003;14672;50.250;8.312;2023-11-21T12:51:12;16.25;13.25;5.75
27143;PMS1003;14672;50.250;8.312;2023-11-21T12:53:41;18.25;17.50;8.00
27143;PMS1003;14672;50.250;8.312;2023-11-21T12:56:10;16.25;16.25;8.00
27143;PMS1003;14672;50.250;8.312;2023-11-21T12:58:37;17.75;17.75;8.00
27143;PMS1003;14672;50.250;8.312;2023-11-21T13:01:08;19.00;16.75;6.25
27143;PMS1003;14672;50.250;8.312;2023-11-21T13:03:45;19.25;18.50;8.50
27143;PMS1003;14672;50.250;8.312;2023-11-21T13:06:14;19.00;18.50;9.00
27143;PMS1003;14672;50.250;8.312;2023-11-21T13:08:41;19.00;19.00;9.00
27143;PMS1003;14672;50.250;8.312;2023-11-21T13:11:09;22.75;21.50;10.50
27143;PMS1003;14672;50.250;8.312;2023-11-21T13:13:39;22.00;19.00;9.00
27143;PMS1003;14672;50.250;8.312;2023-11-21T13:16:08;26.25;24.25;9.50
27143;PMS1003;14672;50.250;8.312;2023-11-21T13:18:35;30.25;29.50;13.25
27143;PMS1003;14672;50.250;8.312;2023-11-21T13:21:02;35.25;31.00;14.00
27143;PMS1003;14672;50.250;8.312;2023-11-21T13:23:40;27.50;26.25;12.00
27143;PMS1003;14672;50.250;8.312;2023-11-21T13:26:08;25.00;23.00;11.25
27143;PMS1003;14672;50.250;8.312;2023-11-21T13:28:35;21.75;20.75;8.25
27143;PMS1003;14672;50.250;8.312;2023-11-21T13:31:03;20.00;18.25;9.00
27143;PMS1003;14672;50.250;8.312;2023-11-21T13:33:46;23.75;19.75;8.00
27143;PMS1003;14672;50.250;8.312;2023-11-21T13:36:20;18.00;16.50;8.00
27143;PMS1003;14672;50.250;8.312;2023-11-21T13:38:48;22.00;17.25;8.00
27143;PMS1003;14672;50.250;8.312;2023-11-21T13:41:15;15.00;15.00;8.00
27143;PMS1003;14672;50.250;8.312;2023-11-21T13:43:43;18.25;18.25;8.25
27143;PMS1003;14672;50.250;8.312;2023-11-21T13:46:18;17.00;14.75;6.00
27143;PMS1003;14672;50.250;8.312;2023-11-21T13:48:47;21.00;19.75;8.00
27143;PMS1003;14672;50.250;8.312;2023-11-21T13:51:20;19.00;19.00;7.50
27143;PMS1003;14672;50.250;8.312;2023-11-21T13:53:54;21.00;18.25;8.00
27143;PMS1003;14672;50.250;8.312;2023-11-21T13:56:20;16.33;15.00;6.00
27143;PMS1003;14672;50.250;8.312;2023-11-21T13:58:49;24.75;20.75;8.00
27143;PMS1003;14672;50.250;8.312;2023-11-21T14:01:19;19.50;16.50;6.50
27143;PMS1003;14672;50.250;8.312;2023-11-21T14:03:59;18.25;17.75;8.00
27143;PMS1003;14672;50.250;8.312;2023-11-21T14:06:49;18.00;16.00;7.50
27143;PMS1003;14672;50.250;8.312;2023-11-21T14:09:19;18.00;17.50;7.50
27143;PMS1003;14672;50.250;8.312;2023-11-21T14:11:57;22.75;19.75;8.00
27143;PMS1003;14672;50.250;8.312;2023-11-21T14:14:27;19.75;19.75;9.50
27143;PMS1003;14672;50.250;8.312;2023-11-21T14:16:53;21.25;17.00;6.00
27143;PMS1003;14672;50.250;8.312;2023-11-21T14:19:21;17.00;16.00;7.00
27143;PMS1003;14672;50.250;8.312;2023-11-21T14:21:52;21.25;18.25;8.00
27143;PMS1003;14672;50.250;8.312;2023-11-21T14:24:18;18.67;18.00;8.00
27143;PMS1003;14672;50.250;8.312;2023-11-21T14:26:44;21.33;21.33;8.00
27143;PMS1003;14672;50.250;8.312;2023-11-21T14:29:12;27.25;21.75;11.00